Sisak, Croatia

8:44 AM CEST on September 20, 2014 (GMT +0200)
Petrovec | Change Station
CLOSE
Current Station
Personal Weather Station
Location: Petrovec, SISAčKO-MOSLAVAčKA žUPANIJA
Elevation: 370 ft
Nearby Weather Stations

Elev 370 ft 45.50 °N, 16.27 °E | Updated 4 minutes ago

Partly Cloudy
Partly Cloudy
60.3 °F
Feels Like 60.3 °F
N
0.0
Wind Variable Wind from South
Gusts 0.0 mph

Today
High -- | Low -- °F
--% Chance of Precip.
Yesterday
High -- | Low -- °F
Precip. -- in
6:38 AM 6:56 PM
Waning Crescent, 14% visible
Pressure 29.98 in
Visibility 6.2 miles
Clouds Few 4000 ft
Dew Point 58 °F
Humidity 91%
Rainfall 0.00 in
Snow Depth Not available.
UV 1 out of 12
Pollen Not available.
Air Quality Not available.
Flu Activity Not available.
METAR LDZA 200630Z 21005KT 9999 FEW040 17/15 Q1015 BECMG RA

More Conditions Fewer Conditions

Pressure 29.98 in
Visibility 6.2 miles
Clouds Few 4000 ft
Dew Point 58 °F
Humidity 91%
Rainfall 0.00 in
Snow Depth Not available.
UV 1 out of 12
Pollen Not available.
Air Quality Not available.
Flu Activity Not available.
METAR LDZA 200630Z 21005KT 9999 FEW040 17/15 Q1015 BECMG RA

More Conditions Fewer Conditions

10-Day Weather Forecast

Almanac

Astronomy

Sep. 20, 2014 Rise Set
Actual Time 6:38 AM CEST 6:56 PM CEST
Civil Twilight 6:09 AM CEST 7:26 PM CEST
Nautical Twilight 5:34 AM CEST 8:00 PM CEST
Astronomical Twilight 4:58 AM CEST 8:36 PM CEST
Moon 2:53 AM CEST 4:57 PM CEST
Length of Visible Light 13h 16m
Length of Day
12h 17m
Tomorrow will be 3m 10s shorter.
Waning Crescent, 14% of the Moon is Illuminated
Today
Waning Crescent
Sep 24
New
Oct 1
First Quarter
Oct 8
Full
Oct 15
Last Quarter

Yesterday's Extremes

Country Highs Country Lows

Community

WunderPhotos

Upload Photos

1,754,779 photos uploaded!

WunderBlogs® & News

Nearby

Snow Depth

Not available.

Earthquake Activity

City Distance Mag. Time & Date
No recent earthquake activity has been reported nearby.
Minimum magnitude displayed is 2.5.

Coastal Water Temperatures

Place Temperature
No Stations Reporting

Nearby Weather Stations